createdAt,value
2023-03-21T00:00:32.618Z,11.23
2023-03-21T00:01:34.432Z,11.23
2023-03-21T00:02:36.191Z,11.31
2023-03-21T00:03:38.113Z,11.32
2023-03-21T00:04:50.973Z,11.35
2023-03-21T00:05:54.320Z,11.34
2023-03-21T00:06:56.099Z,11.41
2023-03-21T00:07:58.071Z,11.32
2023-03-21T00:09:00.470Z,11.14
2023-03-21T00:10:14.343Z,10.94
2023-03-21T00:11:17.360Z,11.03
2023-03-21T00:12:21.199Z,11.10
2023-03-21T00:13:22.991Z,11.10
2023-03-21T00:14:26.189Z,11.05
2023-03-21T00:15:39.968Z,11.10
2023-03-21T00:16:51.529Z,11.05
2023-03-21T00:17:58.516Z,10.99
2023-03-21T00:19:03.371Z,11.02
2023-03-21T00:20:06.680Z,11.05
2023-03-21T00:21:39.158Z,11.07
2023-03-21T00:22:35.850Z,11.07
2023-03-21T00:23:37.624Z,11.06
2023-03-21T00:24:39.517Z,11.02
2023-03-21T00:25:41.305Z,11.05
2023-03-21T00:26:43.009Z,10.98
2023-03-21T00:28:01.077Z,10.99
2023-03-21T00:29:06.528Z,10.93
2023-03-21T00:30:08.953Z,10.91
2023-03-21T00:31:11.239Z,10.81
2023-03-21T00:32:12.939Z,10.90
2023-03-21T00:33:22.293Z,10.92
2023-03-21T00:34:36.433Z,10.90
2023-03-21T00:36:02.577Z,10.90
2023-03-21T00:37:08.170Z,10.90
2023-03-21T00:38:10.467Z,10.88
2023-03-21T00:39:12.242Z,10.91
2023-03-21T00:40:27.662Z,10.82
2023-03-21T00:41:41.843Z,10.86
2023-03-21T00:42:45.009Z,10.81
2023-03-21T00:43:46.728Z,10.83
2023-03-21T00:44:48.447Z,10.75
2023-03-21T00:45:51.457Z,10.75
2023-03-21T00:47:06.321Z,10.77
2023-03-21T00:48:09.044Z,10.81
2023-03-21T00:49:10.851Z,10.77
2023-03-21T00:50:12.604Z,10.75
2023-03-21T00:51:21.579Z,10.78
2023-03-21T00:52:38.100Z,10.72
2023-03-21T00:53:42.632Z,10.75
2023-03-21T00:54:44.366Z,10.75
2023-03-21T00:55:46.338Z,10.76
2023-03-21T00:56:48.127Z,10.71
2023-03-21T00:57:56.310Z,10.74
2023-03-21T00:59:03.150Z,10.73
2023-03-21T01:00:07.735Z,10.76
2023-03-21T01:01:09.799Z,10.73
2023-03-21T01:02:15.161Z,10.70
2023-03-21T01:03:25.001Z,10.65
2023-03-21T01:04:28.520Z,10.67
2023-03-21T01:05:49.466Z,10.68
2023-03-21T01:06:51.150Z,10.68
2023-03-21T01:07:53.411Z,10.68
2023-03-21T01:08:55.223Z,10.64
2023-03-21T01:09:57.004Z,10.70
2023-03-21T01:11:02.971Z,10.72
2023-03-21T01:12:04.734Z,10.74
2023-03-21T01:13:06.478Z,10.51
2023-03-21T01:14:21.270Z,10.70
2023-03-21T01:15:24.022Z,10.67
2023-03-21T01:16:25.909Z,10.60
2023-03-21T01:17:27.676Z,10.56
2023-03-21T01:18:30.659Z,10.50
2023-03-21T01:19:48.621Z,10.54
2023-03-21T01:20:54.532Z,10.53
2023-03-21T01:21:57.636Z,10.58
2023-03-21T01:22:59.382Z,10.61
2023-03-21T01:24:01.905Z,10.61
2023-03-21T01:25:21.293Z,10.66
2023-03-21T01:26:24.443Z,10.68
2023-03-21T01:27:26.219Z,10.67
2023-03-21T01:28:28.977Z,10.68
2023-03-21T01:29:30.697Z,10.67
2023-03-21T01:30:37.017Z,10.72
2023-03-21T01:31:43.622Z,10.63
2023-03-21T01:32:45.431Z,10.64
2023-03-21T01:33:47.962Z,10.72
2023-03-21T01:34:49.697Z,10.70
2023-03-21T01:35:57.563Z,10.65
2023-03-21T01:37:04.959Z,10.71
2023-03-21T01:38:07.202Z,10.70
2023-03-21T01:39:08.951Z,10.60
2023-03-21T01:40:23.841Z,10.64
2023-03-21T01:41:45.782Z,10.63
2023-03-21T01:42:47.547Z,10.61
2023-03-21T01:43:49.365Z,10.58
2023-03-21T01:44:58.443Z,10.54
2023-03-21T01:46:51.466Z,10.55
2023-03-21T01:47:59.049Z,10.61
2023-03-21T01:49:06.964Z,10.65
2023-03-21T01:50:09.010Z,10.59
2023-03-21T01:51:13.119Z,10.55
2023-03-21T01:52:35.849Z,10.49
2023-03-21T01:53:40.764Z,10.44
2023-03-21T01:54:43.993Z,10.43
2023-03-21T01:55:47.900Z,10.25
2023-03-21T01:56:49.672Z,10.21
2023-03-21T01:58:05.421Z,10.19
2023-03-21T01:59:13.457Z,10.21
2023-03-21T02:00:16.094Z,10.19
2023-03-21T02:01:22.954Z,10.35
2023-03-21T02:02:30.075Z,10.19
2023-03-21T02:03:38.646Z,10.47
2023-03-21T02:04:41.139Z,10.47
2023-03-21T02:05:48.889Z,10.54
2023-03-21T02:06:59.217Z,10.52
2023-03-21T02:08:00.983Z,10.57
2023-03-21T02:09:08.783Z,10.62
2023-03-21T02:10:13.823Z,10.61
2023-03-21T02:11:17.209Z,10.59
2023-03-21T02:12:19.763Z,10.62
2023-03-21T02:13:21.770Z,10.51
2023-03-21T02:14:29.242Z,10.62
2023-03-21T02:15:31.547Z,10.63
2023-03-21T02:16:36.109Z,10.65
2023-03-21T02:17:49.765Z,10.65
2023-03-21T02:19:00.745Z,10.68
2023-03-21T02:20:36.782Z,10.67
2023-03-21T02:22:01.212Z,10.64
2023-03-21T02:23:21.394Z,10.61
2023-03-21T02:24:32.565Z,10.63
2023-03-21T02:25:43.462Z,10.65
2023-03-21T02:27:24.101Z,10.63
2023-03-21T02:28:32.973Z,10.56
2023-03-21T02:29:40.385Z,10.61
2023-03-21T02:31:36.603Z,10.61
2023-03-21T02:33:11.188Z,10.60
2023-03-21T02:34:29.932Z,10.60
2023-03-21T02:35:58.639Z,10.53
2023-03-21T02:37:14.011Z,10.46
2023-03-21T02:38:32.863Z,10.48
2023-03-21T02:39:48.720Z,10.43
2023-03-21T02:40:56.819Z,10.40
2023-03-21T02:42:10.303Z,10.48
2023-03-21T02:43:32.109Z,10.48
2023-03-21T02:44:45.569Z,10.52
2023-03-21T02:46:11.118Z,10.50
2023-03-21T02:47:26.544Z,10.55
2023-03-21T02:48:44.754Z,10.58
2023-03-21T02:50:24.329Z,10.60
2023-03-21T02:51:27.958Z,10.63
2023-03-21T02:52:39.029Z,10.64
2023-03-21T02:53:50.524Z,10.64
2023-03-21T02:54:55.474Z,10.62
2023-03-21T02:55:59.307Z,10.67
2023-03-21T02:57:04.543Z,10.72
2023-03-21T02:58:13.415Z,10.76
2023-03-21T02:59:18.087Z,10.67
2023-03-21T03:00:26.744Z,10.78
2023-03-21T03:01:29.174Z,10.74
2023-03-21T03:02:31.004Z,10.81
2023-03-21T03:03:34.687Z,10.84
2023-03-21T03:04:36.766Z,10.86
2023-03-21T03:05:52.196Z,10.85
2023-03-21T03:07:31.648Z,10.81
2023-03-21T03:09:03.239Z,10.81
2023-03-21T03:10:26.308Z,10.78
2023-03-21T03:11:40.102Z,10.73
2023-03-21T03:13:13.374Z,10.64
2023-03-21T03:14:59.867Z,10.54
2023-03-21T03:16:16.470Z,10.52
2023-03-21T03:17:57.389Z,10.48
2023-03-21T03:19:01.349Z,10.48
2023-03-21T03:20:19.414Z,10.48
2023-03-21T03:21:30.615Z,10.44
2023-03-21T03:22:46.295Z,10.38
2023-03-21T03:24:10.560Z,10.27
2023-03-21T03:25:26.959Z,10.39
2023-03-21T03:26:37.207Z,10.36
2023-03-21T03:27:44.209Z,10.33
2023-03-21T03:28:52.976Z,10.34
2023-03-21T03:29:57.110Z,10.26
2023-03-21T03:31:09.127Z,10.27
2023-03-21T03:32:12.120Z,10.25
2023-03-21T03:33:17.274Z,10.21
2023-03-21T03:34:22.390Z,10.20
2023-03-21T03:35:26.368Z,10.21
2023-03-21T03:36:35.949Z,10.25
2023-03-21T03:37:40.380Z,10.21
2023-03-21T03:38:43.910Z,10.08
2023-03-21T03:39:59.157Z,10.08
2023-03-21T03:41:14.827Z,10.06
2023-03-21T03:42:28.813Z,10.02
2023-03-21T03:43:38.323Z,9.99
2023-03-21T03:44:40.402Z,9.96
2023-03-21T03:45:47.750Z,9.90
2023-03-21T03:47:11.814Z,9.96
2023-03-21T03:48:46.544Z,9.86
2023-03-21T03:49:59.902Z,9.90
2023-03-21T03:51:07.571Z,9.86
2023-03-21T03:52:22.836Z,9.83
2023-03-21T03:53:35.252Z,9.72
2023-03-21T03:54:41.606Z,9.78
2023-03-21T03:55:44.130Z,9.70
2023-03-21T03:56:47.010Z,9.69
2023-03-21T03:57:49.586Z,9.69
2023-03-21T03:58:51.504Z,9.75
2023-03-21T03:59:53.609Z,9.74
2023-03-21T04:00:56.160Z,9.74
2023-03-21T04:01:57.885Z,9.76
2023-03-21T04:03:00.384Z,9.75
2023-03-21T04:04:12.592Z,9.74
2023-03-21T04:05:15.422Z,9.69
2023-03-21T04:06:18.008Z,9.74
2023-03-21T04:07:21.678Z,9.74
2023-03-21T04:08:23.486Z,9.70
2023-03-21T04:09:42.579Z,9.68
2023-03-21T04:10:45.820Z,9.74
2023-03-21T04:11:48.319Z,9.74
2023-03-21T04:12:50.222Z,9.69
2023-03-21T04:13:52.159Z,9.75
2023-03-21T04:14:56.991Z,9.75
2023-03-21T04:16:04.891Z,9.75
2023-03-21T04:17:06.638Z,9.63
2023-03-21T04:18:08.347Z,9.75
2023-03-21T04:19:10.059Z,9.75
2023-03-21T04:20:20.747Z,9.76
2023-03-21T04:21:29.158Z,9.74
2023-03-21T04:22:31.279Z,9.77
2023-03-21T04:23:33.486Z,9.71
2023-03-21T04:24:37.592Z,9.75
2023-03-21T04:25:47.573Z,9.70
2023-03-21T04:26:55.834Z,9.70
2023-03-21T04:27:57.573Z,9.69
2023-03-21T04:29:01.048Z,9.73
2023-03-21T04:30:04.334Z,9.72
2023-03-21T04:31:22.620Z,9.70
2023-03-21T04:32:27.768Z,9.70
2023-03-21T04:33:29.465Z,9.68
2023-03-21T04:34:31.223Z,9.69
2023-03-21T04:35:37.066Z,9.69
2023-03-21T04:36:39.536Z,9.68
2023-03-21T04:37:41.697Z,9.62
2023-03-21T04:38:45.918Z,9.67
2023-03-21T04:39:48.084Z,9.65
2023-03-21T04:40:49.960Z,9.62
2023-03-21T04:41:51.720Z,9.62
2023-03-21T04:42:53.554Z,9.59
2023-03-21T04:43:55.975Z,9.54
2023-03-21T04:44:57.674Z,9.54
2023-03-21T04:45:59.490Z,9.55
2023-03-21T04:47:01.267Z,9.54
2023-03-21T04:48:03.036Z,9.56
2023-03-21T04:49:07.115Z,9.54
2023-03-21T04:50:10.843Z,9.53
2023-03-21T04:51:12.627Z,9.50
2023-03-21T04:52:15.585Z,9.49
2023-03-21T04:53:17.638Z,9.52
2023-03-21T04:54:19.476Z,9.52
2023-03-21T04:55:21.786Z,9.48
2023-03-21T04:56:32.880Z,9.47
2023-03-21T04:57:34.619Z,9.44
2023-03-21T04:58:36.304Z,9.45
2023-03-21T04:59:38.113Z,9.47
2023-03-21T05:00:40.290Z,9.49
2023-03-21T05:01:43.967Z,9.53
2023-03-21T05:02:46.271Z,9.60
2023-03-21T05:03:48.041Z,9.62
2023-03-21T05:04:49.749Z,9.64
2023-03-21T05:05:51.510Z,9.68
2023-03-21T05:06:54.257Z,9.73
2023-03-21T05:07:55.951Z,9.79
2023-03-21T05:09:01.884Z,9.83
2023-03-21T05:10:04.731Z,9.84
2023-03-21T05:11:06.581Z,9.93
2023-03-21T05:12:08.287Z,9.95
2023-03-21T05:13:10.094Z,10.03
2023-03-21T05:14:15.720Z,10.08
2023-03-21T05:15:17.468Z,10.15
2023-03-21T05:16:19.205Z,10.22
2023-03-21T05:17:23.421Z,10.34
2023-03-21T05:18:25.297Z,10.44
2023-03-21T05:19:36.440Z,10.55
2023-03-21T05:20:43.027Z,10.65
2023-03-21T05:21:45.288Z,10.75
2023-03-21T05:22:50.766Z,10.87
2023-03-21T05:23:55.372Z,10.97
2023-03-21T05:24:57.100Z,11.10
2023-03-21T05:25:58.882Z,11.21
2023-03-21T05:27:04.200Z,11.37
2023-03-21T05:28:07.679Z,11.48
2023-03-21T05:29:09.593Z,11.58
2023-03-21T05:30:14.594Z,11.66
2023-03-21T05:31:18.074Z,11.67
2023-03-21T05:32:19.864Z,11.77
2023-03-21T05:33:21.556Z,11.78
2023-03-21T05:34:23.981Z,11.79
2023-03-21T05:35:26.934Z,11.82
2023-03-21T05:36:28.720Z,11.81
2023-03-21T05:37:30.498Z,11.82
2023-03-21T05:38:32.501Z,11.84
2023-03-21T05:39:34.242Z,11.74
2023-03-21T05:40:35.950Z,11.71
2023-03-21T05:41:37.684Z,11.70
2023-03-21T05:42:39.468Z,11.60
2023-03-21T05:43:41.190Z,11.51
2023-03-21T05:44:42.911Z,11.31
2023-03-21T05:45:44.608Z,11.35
2023-03-21T05:46:46.316Z,11.31
2023-03-21T05:47:48.066Z,11.34
2023-03-21T05:48:49.836Z,11.29
2023-03-21T05:49:51.634Z,11.24
2023-03-21T05:50:54.734Z,11.19
2023-03-21T05:51:56.492Z,11.15
2023-03-21T05:52:58.221Z,10.95
2023-03-21T05:53:59.911Z,11.00
2023-03-21T05:55:01.681Z,10.96
2023-03-21T05:56:03.982Z,10.97
2023-03-21T05:57:06.413Z,10.96
2023-03-21T05:58:08.153Z,10.87
2023-03-21T05:59:09.881Z,10.80
2023-03-21T06:00:12.424Z,10.71
2023-03-21T06:01:14.131Z,10.76
2023-03-21T06:02:16.241Z,10.65
2023-03-21T06:03:18.012Z,10.72
2023-03-21T06:04:19.739Z,10.75
2023-03-21T06:05:21.487Z,10.74
2023-03-21T06:06:23.274Z,10.71
2023-03-21T06:07:24.967Z,10.81
2023-03-21T06:08:26.814Z,10.78
2023-03-21T06:09:28.567Z,10.70
2023-03-21T06:10:30.275Z,10.81
2023-03-21T06:11:34.790Z,10.83
2023-03-21T06:12:37.065Z,10.87
2023-03-21T06:13:38.748Z,10.84
2023-03-21T06:14:40.498Z,10.89
2023-03-21T06:15:42.328Z,10.95
2023-03-21T06:16:44.322Z,10.99
2023-03-21T06:17:46.016Z,11.02
2023-03-21T06:18:47.720Z,11.11
2023-03-21T06:19:49.446Z,11.30
2023-03-21T06:20:51.159Z,11.39
2023-03-21T06:21:52.903Z,11.47
2023-03-21T06:22:54.637Z,11.51
2023-03-21T06:23:56.341Z,11.53
2023-03-21T06:24:58.149Z,11.52
2023-03-21T06:25:59.850Z,11.54
2023-03-21T06:27:03.967Z,11.58
2023-03-21T06:28:06.087Z,11.77
2023-03-21T06:29:07.790Z,11.87
2023-03-21T06:30:10.440Z,11.83
2023-03-21T06:31:12.197Z,11.98
2023-03-21T06:32:14.030Z,12.10
2023-03-21T06:33:15.809Z,12.20
2023-03-21T06:34:17.540Z,12.28
2023-03-21T06:35:19.291Z,12.43
2023-03-21T06:36:20.983Z,12.51
2023-03-21T06:37:22.765Z,12.65
2023-03-21T06:38:25.741Z,12.81
2023-03-21T06:39:27.467Z,12.96
2023-03-21T06:40:29.171Z,13.08
2023-03-21T06:41:30.880Z,13.30
2023-03-21T06:42:32.753Z,13.51
2023-03-21T06:43:35.360Z,13.64
2023-03-21T06:44:37.155Z,13.72
2023-03-21T06:45:39.132Z,13.80
2023-03-21T06:46:41.330Z,13.87
2023-03-21T06:47:43.074Z,13.85
2023-03-21T06:48:45.036Z,13.87
2023-03-21T06:49:46.764Z,13.97
2023-03-21T06:50:50.413Z,14.00
2023-03-21T06:51:52.124Z,14.03
2023-03-21T06:52:54.021Z,14.06
2023-03-21T06:53:55.812Z,14.13
2023-03-21T06:54:57.502Z,14.19
2023-03-21T06:55:59.225Z,14.22
2023-03-21T06:57:01.025Z,14.34
2023-03-21T06:58:03.084Z,14.36
2023-03-21T06:59:05.514Z,14.36
2023-03-21T07:00:09.161Z,14.40
2023-03-21T07:01:11.059Z,14.53
2023-03-21T07:02:13.006Z,14.62
2023-03-21T07:03:15.309Z,14.68
2023-03-21T07:04:17.050Z,14.79
2023-03-21T07:05:18.791Z,14.77
2023-03-21T07:06:20.519Z,14.77
2023-03-21T07:07:26.475Z,14.91
2023-03-21T07:08:28.169Z,15.10
2023-03-21T07:09:29.922Z,15.19
2023-03-21T07:10:32.269Z,15.24
2023-03-21T07:11:36.233Z,15.32
2023-03-21T07:12:38.076Z,15.41
2023-03-21T07:13:39.850Z,15.51
2023-03-21T07:14:41.562Z,15.67
2023-03-21T07:15:43.323Z,15.80
2023-03-21T07:16:45.271Z,16.02
2023-03-21T07:17:47.112Z,16.06
2023-03-21T07:18:49.058Z,16.24
2023-03-21T07:19:50.955Z,16.32
2023-03-21T07:20:52.683Z,16.40
2023-03-21T07:21:54.422Z,16.55
2023-03-21T07:22:56.379Z,16.51
2023-03-21T07:23:58.077Z,16.57
2023-03-21T07:25:05.001Z,16.65
2023-03-21T07:26:08.982Z,16.74
2023-03-21T07:27:11.110Z,16.69
2023-03-21T07:28:12.999Z,16.70
2023-03-21T07:29:15.482Z,16.71
2023-03-21T07:30:17.478Z,16.60
2023-03-21T07:31:20.629Z,16.62
2023-03-21T07:32:22.787Z,16.60
2023-03-21T07:33:25.472Z,16.65
2023-03-21T07:34:33.166Z,16.67
2023-03-21T07:35:36.749Z,16.62
2023-03-21T07:36:38.705Z,16.73
2023-03-21T07:37:40.886Z,16.63
2023-03-21T07:38:46.455Z,16.68
2023-03-21T07:39:48.186Z,16.66
2023-03-21T07:40:50.568Z,16.64
2023-03-21T07:41:52.249Z,16.78
2023-03-21T07:42:53.928Z,16.84
2023-03-21T07:43:55.706Z,16.88
2023-03-21T07:44:57.732Z,16.88
2023-03-21T07:46:00.165Z,16.94
2023-03-21T07:47:01.867Z,16.79
2023-03-21T07:48:03.859Z,16.65
2023-03-21T07:49:06.411Z,16.89
2023-03-21T07:50:08.714Z,16.84
2023-03-21T07:51:10.531Z,16.93
2023-03-21T07:52:13.054Z,17.21
2023-03-21T07:53:14.790Z,17.49
2023-03-21T07:54:19.410Z,17.79
2023-03-21T07:55:21.526Z,17.88
2023-03-21T07:56:23.338Z,17.96
2023-03-21T07:57:25.022Z,18.12
2023-03-21T07:58:27.405Z,18.31
2023-03-21T07:59:29.116Z,18.39
2023-03-21T08:00:31.602Z,18.50
2023-03-21T08:01:33.454Z,18.53
2023-03-21T08:02:35.256Z,18.47
2023-03-21T08:03:38.146Z,18.40
2023-03-21T08:04:40.215Z,18.27
2023-03-21T08:05:42.359Z,18.31
2023-03-21T08:06:44.228Z,18.26
2023-03-21T08:07:46.453Z,18.25
2023-03-21T08:08:48.357Z,18.35
2023-03-21T08:09:50.365Z,18.42
2023-03-21T08:10:52.108Z,18.48
2023-03-21T08:11:53.801Z,18.51
2023-03-21T08:12:55.529Z,18.49
2023-03-21T08:13:58.314Z,18.48
2023-03-21T08:15:01.191Z,18.74
2023-03-21T08:16:03.190Z,18.90
2023-03-21T08:17:06.254Z,18.88
2023-03-21T08:18:08.559Z,19.03
2023-03-21T08:19:10.432Z,19.20
2023-03-21T08:20:18.651Z,19.06
2023-03-21T08:21:20.414Z,18.95
2023-03-21T08:22:22.210Z,18.89
2023-03-21T08:23:24.910Z,18.92
2023-03-21T08:24:27.505Z,18.83
2023-03-21T08:25:29.273Z,18.89
2023-03-21T08:26:32.250Z,18.81
2023-03-21T08:27:35.372Z,18.82
2023-03-21T08:28:39.500Z,18.70
2023-03-21T08:29:42.515Z,18.66
2023-03-21T08:30:44.361Z,18.74
2023-03-21T08:31:46.319Z,18.64
2023-03-21T08:32:48.761Z,18.74
2023-03-21T08:33:54.962Z,18.90
2023-03-21T08:35:02.583Z,19.05
2023-03-21T08:36:06.269Z,19.12
2023-03-21T08:37:08.114Z,19.14
2023-03-21T08:38:10.203Z,19.21
2023-03-21T08:39:11.933Z,19.28
2023-03-21T08:40:16.185Z,19.32
2023-03-21T08:41:19.390Z,19.43
2023-03-21T08:42:23.370Z,19.44
2023-03-21T08:43:25.080Z,19.45
2023-03-21T08:44:27.672Z,19.46
2023-03-21T08:45:29.826Z,19.50
2023-03-21T08:46:31.942Z,19.46
2023-03-21T08:47:33.943Z,19.52
2023-03-21T08:48:38.888Z,19.52
2023-03-21T08:49:41.804Z,19.44
2023-03-21T08:50:43.857Z,19.38
2023-03-21T08:51:48.395Z,19.45
2023-03-21T08:52:50.276Z,19.46
2023-03-21T08:53:52.437Z,19.58
2023-03-21T08:54:55.086Z,19.59
2023-03-21T08:55:56.844Z,19.49
2023-03-21T08:56:59.065Z,19.73
2023-03-21T08:58:01.061Z,19.76
2023-03-21T08:59:02.950Z,19.86
2023-03-21T09:00:13.208Z,19.88
2023-03-21T09:01:15.994Z,19.81
2023-03-21T09:02:18.113Z,19.74
2023-03-21T09:03:20.517Z,19.87
2023-03-21T09:04:22.319Z,19.93
2023-03-21T09:05:25.953Z,20.00
2023-03-21T09:06:28.154Z,19.90
2023-03-21T09:07:34.126Z,19.82
2023-03-21T09:08:35.862Z,19.75
2023-03-21T09:09:37.651Z,19.73
2023-03-21T09:10:39.764Z,19.82
2023-03-21T09:11:42.344Z,19.90
2023-03-21T09:12:44.442Z,19.97
2023-03-21T09:13:46.313Z,20.06
2023-03-21T09:14:48.154Z,20.22
2023-03-21T09:15:49.966Z,20.44
2023-03-21T09:16:52.192Z,20.57
2023-03-21T09:17:54.673Z,20.80
2023-03-21T09:18:59.206Z,20.89
2023-03-21T09:20:11.059Z,21.02
2023-03-21T09:21:14.759Z,21.21
2023-03-21T09:22:21.440Z,21.23
2023-03-21T09:23:23.504Z,21.36
2023-03-21T09:24:26.486Z,21.57
2023-03-21T09:25:31.440Z,21.72
2023-03-21T09:26:33.711Z,21.92
2023-03-21T09:27:36.061Z,22.08
2023-03-21T09:28:39.119Z,22.18
2023-03-21T09:29:43.510Z,22.41
2023-03-21T09:30:45.404Z,22.66
2023-03-21T09:31:47.462Z,22.90
2023-03-21T09:32:50.720Z,23.07
2023-03-21T09:33:53.336Z,23.31
2023-03-21T09:34:57.489Z,23.57
2023-03-21T09:36:00.655Z,23.91
2023-03-21T09:37:03.570Z,24.24
2023-03-21T09:38:05.700Z,24.55
2023-03-21T09:39:07.501Z,24.74
2023-03-21T09:40:29.271Z,25.02
2023-03-21T09:41:49.227Z,25.29
2023-03-21T09:43:22.088Z,25.18
2023-03-21T09:45:17.681Z,25.22
2023-03-21T09:46:22.253Z,25.44
2023-03-21T09:47:33.184Z,25.53
2023-03-21T09:48:54.352Z,25.63
2023-03-21T09:50:13.997Z,25.65
2023-03-21T09:51:19.494Z,25.71
2023-03-21T09:52:27.205Z,25.81
2023-03-21T09:53:35.630Z,25.76
2023-03-21T09:54:40.701Z,25.65
2023-03-21T09:55:44.657Z,25.70
2023-03-21T09:56:47.391Z,25.82
2023-03-21T09:57:56.627Z,25.98
2023-03-21T09:59:00.816Z,26.03
2023-03-21T10:00:14.943Z,26.06
2023-03-21T10:01:28.536Z,26.14
2023-03-21T10:02:47.261Z,25.96
2023-03-21T10:03:54.541Z,26.04
2023-03-21T10:04:56.276Z,26.19
2023-03-21T10:06:01.305Z,26.28
2023-03-21T10:07:04.140Z,26.02
2023-03-21T10:08:25.082Z,25.97
2023-03-21T10:09:28.699Z,25.98
2023-03-21T10:10:43.860Z,25.90
2023-03-21T10:11:50.572Z,25.91
2023-03-21T10:12:55.089Z,25.84
2023-03-21T10:14:07.725Z,25.76
2023-03-21T10:15:16.510Z,25.69
2023-03-21T10:16:33.291Z,25.42
2023-03-21T10:17:44.092Z,24.79
2023-03-21T10:18:46.984Z,24.87
2023-03-21T10:19:56.188Z,24.97
2023-03-21T10:20:58.371Z,24.88
2023-03-21T10:22:02.373Z,24.88
2023-03-21T10:23:08.093Z,24.79
2023-03-21T10:24:17.525Z,24.70
2023-03-21T10:25:50.759Z,24.58
2023-03-21T10:26:54.161Z,24.64
2023-03-21T10:27:55.944Z,24.64
2023-03-21T10:29:02.491Z,24.68
2023-03-21T10:30:07.749Z,24.69
2023-03-21T10:31:14.419Z,24.58
2023-03-21T10:32:18.271Z,24.46
2023-03-21T10:33:24.857Z,24.33
2023-03-21T10:34:38.623Z,24.32
2023-03-21T10:35:44.662Z,24.30
2023-03-21T10:36:46.771Z,24.10
2023-03-21T10:37:48.667Z,24.08
2023-03-21T10:38:55.167Z,24.04
2023-03-21T10:39:57.974Z,23.99
2023-03-21T10:40:59.752Z,24.00
2023-03-21T10:42:01.641Z,23.96
2023-03-21T10:43:20.218Z,23.93
2023-03-21T10:44:22.226Z,23.99
2023-03-21T10:45:24.735Z,23.99
2023-03-21T10:46:27.477Z,23.94
2023-03-21T10:47:34.648Z,23.96
2023-03-21T10:48:39.173Z,23.91
2023-03-21T10:50:05.888Z,23.82
2023-03-21T10:51:05.228Z,23.79
2023-03-21T10:52:11.181Z,23.73
2023-03-21T10:53:20.553Z,23.47
2023-03-21T10:54:28.373Z,23.43
2023-03-21T10:55:33.179Z,22.92
2023-03-21T10:56:50.521Z,22.88
2023-03-21T10:58:10.970Z,22.77
2023-03-21T10:59:20.487Z,22.68
2023-03-21T11:00:26.254Z,22.70
2023-03-21T11:01:43.676Z,22.56
2023-03-21T11:02:49.883Z,22.58
2023-03-21T11:03:58.092Z,22.14
2023-03-21T11:05:06.415Z,21.95
2023-03-21T11:06:34.192Z,21.99
2023-03-21T11:07:37.823Z,21.78
2023-03-21T11:08:45.247Z,21.74
2023-03-21T11:09:59.470Z,21.70
2023-03-21T11:11:06.400Z,21.73
2023-03-21T11:12:33.452Z,21.59
2023-03-21T11:13:43.056Z,21.66
2023-03-21T11:14:51.234Z,21.77
2023-03-21T11:16:09.302Z,21.98
2023-03-21T11:17:17.056Z,22.17
2023-03-21T11:18:22.101Z,22.15
2023-03-21T11:19:33.812Z,22.05
2023-03-21T11:20:43.616Z,21.92
2023-03-21T11:21:45.754Z,21.75
2023-03-21T11:22:49.383Z,21.66
2023-03-21T11:23:52.935Z,21.75
2023-03-21T11:25:02.080Z,21.80
2023-03-21T11:26:10.471Z,21.92
2023-03-21T11:27:12.857Z,22.04
2023-03-21T11:28:19.664Z,21.94
2023-03-21T11:29:31.612Z,21.86
2023-03-21T11:30:33.768Z,21.80
2023-03-21T11:31:42.110Z,21.53
2023-03-21T11:32:43.883Z,21.73
2023-03-21T11:33:53.891Z,22.02
2023-03-21T11:35:09.383Z,22.17
2023-03-21T11:36:17.286Z,22.21
2023-03-21T11:37:27.507Z,22.36
2023-03-21T11:38:39.990Z,22.66
2023-03-21T11:39:44.399Z,22.59
2023-03-21T11:40:56.681Z,22.57
2023-03-21T11:41:58.438Z,22.45
2023-03-21T11:43:03.393Z,22.59
2023-03-21T11:44:05.138Z,22.79
2023-03-21T11:45:20.933Z,22.86
2023-03-21T11:46:27.901Z,22.85
2023-03-21T11:47:31.640Z,22.81
2023-03-21T11:48:42.339Z,22.88
2023-03-21T11:49:44.043Z,22.75
2023-03-21T11:50:49.377Z,22.74
2023-03-21T11:52:14.358Z,22.79
2023-03-21T11:53:36.777Z,22.78
2023-03-21T11:54:58.876Z,22.85
2023-03-21T11:56:27.547Z,23.04
2023-03-21T11:58:00.166Z,23.11
2023-03-21T11:59:05.073Z,23.27
2023-03-21T12:00:17.828Z,23.27
2023-03-21T12:01:49.623Z,23.22
2023-03-21T12:03:16.942Z,23.33
2023-03-21T12:04:42.998Z,23.40
2023-03-21T12:06:06.171Z,23.24
2023-03-21T12:07:07.851Z,23.02
2023-03-21T12:08:09.598Z,23.04
2023-03-21T12:09:28.612Z,22.94
2023-03-21T12:10:42.357Z,22.91
2023-03-21T12:12:05.778Z,22.78
2023-03-21T12:13:34.631Z,22.46
2023-03-21T12:14:47.609Z,22.39
2023-03-21T12:15:58.545Z,22.26
2023-03-21T12:17:10.613Z,22.12
2023-03-21T12:18:42.914Z,22.10
2023-03-21T12:20:00.749Z,21.84
2023-03-21T12:21:14.108Z,21.60
2023-03-21T12:22:34.021Z,21.47
2023-03-21T12:24:01.433Z,21.41
2023-03-21T12:25:15.382Z,21.36
2023-03-21T12:26:27.210Z,21.37
2023-03-21T12:27:35.623Z,21.32
2023-03-21T12:28:58.324Z,21.26
2023-03-21T12:30:12.414Z,21.22
2023-03-21T12:31:17.294Z,21.32
2023-03-21T12:32:18.951Z,21.31
2023-03-21T12:33:39.476Z,21.20
2023-03-21T12:35:08.235Z,21.09
2023-03-21T12:36:28.552Z,21.12
2023-03-21T12:37:48.330Z,21.14
2023-03-21T12:39:05.166Z,21.19
2023-03-21T12:40:36.232Z,21.23
2023-03-21T12:41:45.232Z,21.16
2023-03-21T12:43:03.384Z,21.12
2023-03-21T12:44:11.447Z,21.25
2023-03-21T12:45:24.746Z,21.15
2023-03-21T12:46:43.612Z,21.00
2023-03-21T12:48:02.725Z,20.80
2023-03-21T12:49:35.435Z,20.72
2023-03-21T12:50:39.093Z,20.73
2023-03-21T12:51:46.531Z,20.62
2023-03-21T12:52:54.217Z,20.41
2023-03-21T12:54:06.168Z,20.30
2023-03-21T12:55:31.676Z,20.19
2023-03-21T12:56:57.209Z,20.19
2023-03-21T12:58:04.993Z,20.07
2023-03-21T12:59:38.676Z,20.01
2023-03-21T13:00:43.616Z,20.08
2023-03-21T13:01:49.292Z,20.00
2023-03-21T13:03:02.959Z,20.10
2023-03-21T13:04:09.559Z,19.97
2023-03-21T13:06:01.115Z,19.77
2023-03-21T13:07:05.694Z,19.96
2023-03-21T13:08:16.031Z,20.01
2023-03-21T13:09:37.609Z,19.98
2023-03-21T13:10:42.245Z,19.83
2023-03-21T13:11:45.740Z,19.77
2023-03-21T13:13:14.386Z,19.63
2023-03-21T13:14:24.258Z,19.66
2023-03-21T13:15:48.192Z,19.62
2023-03-21T13:17:01.627Z,19.64
2023-03-21T13:18:19.461Z,19.39
2023-03-21T13:19:37.233Z,19.44
2023-03-21T13:20:56.525Z,19.51
2023-03-21T13:22:06.930Z,19.48
2023-03-21T13:23:09.152Z,19.56
2023-03-21T13:24:32.210Z,19.60
2023-03-21T13:25:47.163Z,19.71
2023-03-21T13:26:51.774Z,19.61
2023-03-21T13:28:03.164Z,19.72
2023-03-21T13:29:34.011Z,19.75
2023-03-21T13:30:36.176Z,19.83
2023-03-21T13:31:51.732Z,19.88
2023-03-21T13:33:07.276Z,19.90
2023-03-21T13:34:09.855Z,19.99
2023-03-21T13:35:27.443Z,20.06
2023-03-21T13:36:34.188Z,20.13
2023-03-21T13:37:40.555Z,20.15
2023-03-21T13:38:43.404Z,20.10
2023-03-21T13:39:49.838Z,20.16
2023-03-21T13:40:58.624Z,20.13
2023-03-21T13:42:06.634Z,20.06
2023-03-21T13:43:40.333Z,19.88
2023-03-21T13:44:50.305Z,19.81
2023-03-21T13:45:53.578Z,19.67
2023-03-21T13:47:22.018Z,19.54
2023-03-21T13:48:32.430Z,19.52
2023-03-21T13:49:38.391Z,19.45
2023-03-21T13:50:53.450Z,19.36
2023-03-21T13:51:58.610Z,19.25
2023-03-21T13:53:19.628Z,19.22
2023-03-21T13:54:24.607Z,19.28
2023-03-21T13:55:28.908Z,19.21
2023-03-21T13:56:50.481Z,19.14
2023-03-21T13:57:52.218Z,19.03
2023-03-21T13:58:58.524Z,19.00
2023-03-21T14:00:20.103Z,18.88
2023-03-21T14:01:39.544Z,18.70
2023-03-21T14:02:53.663Z,18.60
2023-03-21T14:04:15.642Z,18.54
2023-03-21T14:05:21.598Z,18.45
2023-03-21T14:06:26.701Z,18.41
2023-03-21T14:07:34.786Z,18.42
2023-03-21T14:08:39.777Z,18.36
2023-03-21T14:09:53.101Z,18.25
2023-03-21T14:10:59.859Z,18.31
2023-03-21T14:12:07.595Z,18.27
2023-03-21T14:13:16.405Z,18.26
2023-03-21T14:14:20.906Z,18.27
2023-03-21T14:15:54.924Z,18.27
2023-03-21T14:16:57.508Z,18.25
2023-03-21T14:18:10.895Z,18.34
2023-03-21T14:19:31.571Z,18.29
2023-03-21T14:20:39.329Z,18.43
2023-03-21T14:21:50.395Z,18.44
2023-03-21T14:22:52.449Z,18.40
2023-03-21T14:23:58.253Z,18.40
2023-03-21T14:25:02.711Z,18.34
2023-03-21T14:26:04.613Z,18.36
2023-03-21T14:27:06.592Z,18.44
2023-03-21T14:28:14.776Z,18.47
2023-03-21T14:29:33.860Z,18.33
2023-03-21T14:30:41.169Z,18.33
2023-03-21T14:31:46.958Z,18.31
2023-03-21T14:32:49.049Z,18.33